sensor_id;sensor_type;location;lat;lon;timestamp;pressure;altitude;pressure_sealevel;temperature;humidity
5350;BME280;2697;42.144;24.794;2022-09-09T00:01:27;157236.81;;;18.06;89.79
5350;BME280;2697;42.144;24.794;2022-09-09T00:07:07;157250.03;;;18.11;90.10
5350;BME280;2697;42.144;24.794;2022-09-09T00:09:46;157259.34;;;18.15;89.67
5350;BME280;2697;42.144;24.794;2022-09-09T00:12:18;157182.50;;;17.85;90.79
5350;BME280;2697;42.144;24.794;2022-09-09T00:15:07;157133.47;;;17.66;92.43
5350;BME280;2697;42.144;24.794;2022-09-09T00:17:43;157132.13;;;17.66;92.87
5350;BME280;2697;42.144;24.794;2022-09-09T00:20:32;157092.44;;;17.51;93.15
5350;BME280;2697;42.144;24.794;2022-09-09T00:23:30;157081.84;;;17.47;93.22
5350;BME280;2697;42.144;24.794;2022-09-09T00:26:14;157079.19;;;17.46;93.11
5350;BME280;2697;42.144;24.794;2022-09-09T00:28:52;157084.47;;;17.48;92.64
5350;BME280;2697;42.144;24.794;2022-09-09T00:31:26;157091.13;;;17.50;92.76
5350;BME280;2697;42.144;24.794;2022-09-09T00:33:53;157100.38;;;17.54;92.81
5350;BME280;2697;42.144;24.794;2022-09-09T00:36:22;157087.13;;;17.49;92.87
5350;BME280;2697;42.144;24.794;2022-09-09T00:38:57;156932.28;;;16.89;96.15
5350;BME280;2697;42.144;24.794;2022-09-09T00:55:17;157097.75;;;17.53;93.21
5350;BME280;2697;42.144;24.794;2022-09-09T00:57:46;157060.66;;;17.38;93.06
5350;BME280;2697;42.144;24.794;2022-09-09T01:00:18;157095.09;;;17.52;92.92
5350;BME280;2697;42.144;24.794;2022-09-09T01:10:54;156968.00;;;17.03;94.84
5350;BME280;2697;42.144;24.794;2022-09-09T01:13:31;156957.44;;;16.99;95.04
5350;BME280;2697;42.144;24.794;2022-09-09T01:16:00;156954.78;;;16.98;95.76
5350;BME280;2697;42.144;24.794;2022-09-09T01:18:39;156946.88;;;16.95;95.86
5350;BME280;2697;42.144;24.794;2022-09-09T01:26:37;156991.81;;;17.12;95.54
5350;BME280;2697;42.144;24.794;2022-09-09T01:29:02;156989.19;;;17.11;95.56
5350;BME280;2697;42.144;24.794;2022-09-09T01:31:39;156982.56;;;17.08;96.03
5350;BME280;2697;42.144;24.794;2022-09-09T01:34:13;156975.97;;;17.06;95.91
5350;BME280;2697;42.144;24.794;2022-09-09T01:36:46;156997.16;;;17.14;95.84
5350;BME280;2697;42.144;24.794;2022-09-09T01:39:15;157007.72;;;17.18;95.62
5350;BME280;2697;42.144;24.794;2022-09-09T01:41:41;157005.06;;;17.17;95.15
5350;BME280;2697;42.144;24.794;2022-09-09T01:44:07;156975.97;;;17.06;95.97
5350;BME280;2697;42.144;24.794;2022-09-09T01:46:33;156962.72;;;17.01;95.26
5350;BME280;2697;42.144;24.794;2022-09-09T01:49:00;156982.56;;;17.08;95.08
5350;BME280;2697;42.144;24.794;2022-09-09T01:51:27;156989.19;;;17.11;95.10
5350;BME280;2697;42.144;24.794;2022-09-09T01:53:53;156991.81;;;17.12;95.62
5350;BME280;2697;42.144;24.794;2022-09-09T02:04:30;156936.25;;;16.91;97.39
5350;BME280;2697;42.144;24.794;2022-09-09T02:06:58;156937.56;;;16.91;97.36
5350;BME280;2697;42.144;24.794;2022-09-09T02:09:26;156956.13;;;16.98;97.07
5350;BME280;2697;42.144;24.794;2022-09-09T02:12:11;156954.78;;;16.98;97.01
5350;BME280;2697;42.144;24.794;2022-09-09T02:14:41;156892.59;;;16.74;98.39
5350;BME280;2697;42.144;24.794;2022-09-09T02:17:10;156912.44;;;16.81;99.08
5350;BME280;2697;42.144;24.794;2022-09-09T02:19:45;156907.16;;;16.79;99.05
5350;BME280;2697;42.144;24.794;2022-09-09T02:22:11;156949.50;;;16.96;98.05
5350;BME280;2697;42.144;24.794;2022-09-09T02:24:39;156954.78;;;16.98;98.60
5350;BME280;2697;42.144;24.794;2022-09-09T02:27:07;156944.22;;;16.94;98.60
5350;BME280;2697;42.144;24.794;2022-09-09T02:29:40;156923.06;;;16.86;98.95
5350;BME280;2697;42.144;24.794;2022-09-09T02:32:10;156928.34;;;16.88;99.14
5350;BME280;2697;42.144;24.794;2022-09-09T02:34:41;156904.53;;;16.78;100.00
5350;BME280;2697;42.144;24.794;2022-09-09T02:37:09;156891.28;;;16.73;100.00
5350;BME280;2697;42.144;24.794;2022-09-09T02:39:35;156875.38;;;16.67;100.00
5350;BME280;2697;42.144;24.794;2022-09-09T02:42:01;156875.38;;;16.67;100.00
5350;BME280;2697;42.144;24.794;2022-09-09T02:44:29;156885.97;;;16.71;100.00
5350;BME280;2697;42.144;24.794;2022-09-09T02:52:17;156851.56;;;16.58;100.00
5350;BME280;2697;42.144;24.794;2022-09-09T02:54:44;156827.75;;;16.49;100.00
5350;BME280;2697;42.144;24.794;2022-09-09T02:57:11;156813.19;;;16.43;100.00
5350;BME280;2697;42.144;24.794;2022-09-09T02:59:38;156835.66;;;16.52;100.00
5350;BME280;2697;42.144;24.794;2022-09-09T03:02:04;156843.59;;;16.55;100.00
5350;BME280;2697;42.144;24.794;2022-09-09T03:04:30;156842.28;;;16.54;100.00
5350;BME280;2697;42.144;24.794;2022-09-09T03:06:57;156835.66;;;16.52;100.00
5350;BME280;2697;42.144;24.794;2022-09-09T03:09:23;156803.94;;;16.40;100.00
5350;BME280;2697;42.144;24.794;2022-09-09T03:11:49;156806.56;;;16.41;100.00
5350;BME280;2697;42.144;24.794;2022-09-09T03:14:15;156827.75;;;16.49;100.00
5350;BME280;2697;42.144;24.794;2022-09-09T03:16:41;156859.47;;;16.61;100.00
5350;BME280;2697;42.144;24.794;2022-09-09T03:19:08;156846.22;;;16.56;100.00
5350;BME280;2697;42.144;24.794;2022-09-09T03:21:33;156871.34;;;16.66;100.00
5350;BME280;2697;42.144;24.794;2022-09-09T03:23:59;156868.72;;;16.65;100.00
5350;BME280;2697;42.144;24.794;2022-09-09T03:26:25;156901.88;;;16.77;100.00
5350;BME280;2697;42.144;24.794;2022-09-09T03:28:50;156856.84;;;16.60;98.60
5350;BME280;2697;42.144;24.794;2022-09-09T03:31:17;156875.38;;;16.67;98.88
5350;BME280;2697;42.144;24.794;2022-09-09T03:33:43;156862.13;;;16.62;97.52
5350;BME280;2697;42.144;24.794;2022-09-09T03:36:08;156864.75;;;16.63;97.85
5350;BME280;2697;42.144;24.794;2022-09-09T03:38:34;156862.13;;;16.62;97.91
5350;BME280;2697;42.144;24.794;2022-09-09T03:41:01;156905.84;;;16.79;97.35
5350;BME280;2697;42.144;24.794;2022-09-09T03:43:28;156925.69;;;16.87;95.44
5350;BME280;2697;42.144;24.794;2022-09-09T03:45:53;156915.06;;;16.83;97.08
5350;BME280;2697;42.144;24.794;2022-09-09T03:48:22;156946.88;;;16.95;97.09
5350;BME280;2697;42.144;24.794;2022-09-09T03:50:52;156945.53;;;16.94;96.54
5350;BME280;2697;42.144;24.794;2022-09-09T03:53:19;156925.69;;;16.87;96.46
5350;BME280;2697;42.144;24.794;2022-09-09T03:55:50;156883.34;;;16.70;97.20
5350;BME280;2697;42.144;24.794;2022-09-09T03:58:18;156870.03;;;16.65;97.12
5350;BME280;2697;42.144;24.794;2022-09-09T04:00:57;156848.91;;;16.57;97.64
5350;BME280;2697;42.144;24.794;2022-09-09T04:03:24;156830.38;;;16.50;98.77
5350;BME280;2697;42.144;24.794;2022-09-09T04:05:53;156843.59;;;16.55;98.06
5350;BME280;2697;42.144;24.794;2022-09-09T04:08:20;156870.03;;;16.65;97.32
5350;BME280;2697;42.144;24.794;2022-09-09T04:10:47;156900.56;;;16.77;96.39
5350;BME280;2697;42.144;24.794;2022-09-09T04:13:14;156917.72;;;16.84;96.04
5350;BME280;2697;42.144;24.794;2022-09-09T04:15:41;156973.31;;;17.05;94.41
5350;BME280;2697;42.144;24.794;2022-09-09T04:18:07;157034.19;;;17.28;93.65
5350;BME280;2697;42.144;24.794;2022-09-09T04:20:33;157118.94;;;17.61;92.66
5350;BME280;2697;42.144;24.794;2022-09-09T04:22:58;157222.25;;;18.01;91.24
5350;BME280;2697;42.144;24.794;2022-09-09T04:25:24;157350.69;;;18.50;89.09
5350;BME280;2697;42.144;24.794;2022-09-09T04:27:57;157475.28;;;18.98;87.69
5350;BME280;2697;42.144;24.794;2022-09-09T04:30:23;157625.09;;;19.55;84.62
5350;BME280;2697;42.144;24.794;2022-09-09T04:32:49;157688.75;;;19.80;81.81
5350;BME280;2697;42.144;24.794;2022-09-09T04:35:14;157788.19;;;20.18;78.58
5350;BME280;2697;42.144;24.794;2022-09-09T04:37:40;157906.31;;;20.63;76.35
5350;BME280;2697;42.144;24.794;2022-09-09T04:40:06;158016.47;;;21.05;73.88
5350;BME280;2697;42.144;24.794;2022-09-09T04:42:37;158121.38;;;21.46;71.78
5350;BME280;2697;42.144;24.794;2022-09-09T04:45:04;158315.28;;;22.20;67.87
5350;BME280;2697;42.144;24.794;2022-09-09T04:47:29;158482.72;;;22.84;64.11
5350;BME280;2697;42.144;24.794;2022-09-09T04:49:55;158461.38;;;22.76;62.53
5350;BME280;2697;42.144;24.794;2022-09-09T04:52:20;158793.81;;;24.03;59.25
5350;BME280;2697;42.144;24.794;2022-09-09T04:54:46;158958.81;;;24.66;56.23
5350;BME280;2697;42.144;24.794;2022-09-09T04:57:12;159103.81;;;25.22;54.33
5350;BME280;2697;42.144;24.794;2022-09-09T04:59:37;159051.94;;;25.02;52.52
5350;BME280;2697;42.144;24.794;2022-09-09T05:02:03;159059.97;;;25.05;54.09
5350;BME280;2697;42.144;24.794;2022-09-09T05:04:29;159127.78;;;25.31;52.80
5350;BME280;2697;42.144;24.794;2022-09-09T05:06:54;159266.28;;;25.84;51.00
5350;BME280;2697;42.144;24.794;2022-09-09T05:09:21;159446.13;;;26.53;48.96
5350;BME280;2697;42.144;24.794;2022-09-09T05:11:46;159427.47;;;26.46;47.87
5350;BME280;2697;42.144;24.794;2022-09-09T05:14:11;159483.41;;;26.67;47.12
5350;BME280;2697;42.144;24.794;2022-09-09T05:16:37;159728.63;;;27.61;44.26
5350;BME280;2697;42.144;24.794;2022-09-09T05:19:03;159599.38;;;27.11;45.08
5350;BME280;2697;42.144;24.794;2022-09-09T05:21:28;159560.66;;;26.96;46.04
5350;BME280;2697;42.144;24.794;2022-09-09T05:23:56;159606.03;;;27.14;44.97
5350;BME280;2697;42.144;24.794;2022-09-09T05:26:22;159315.56;;;26.03;47.14
5350;BME280;2697;42.144;24.794;2022-09-09T05:28:48;159560.66;;;26.96;46.26
5350;BME280;2697;42.144;24.794;2022-09-09T05:31:15;159648.66;;;27.30;45.08
5350;BME280;2697;42.144;24.794;2022-09-09T05:33:42;159856.63;;;28.09;44.14
5350;BME280;2697;42.144;24.794;2022-09-09T05:36:12;159915.38;;;28.32;42.99
5350;BME280;2697;42.144;24.794;2022-09-09T05:38:39;159711.28;;;27.54;45.50
5350;BME280;2697;42.144;24.794;2022-09-09T05:41:05;159448.78;;;26.54;46.94
5350;BME280;2697;42.144;24.794;2022-09-09T05:43:30;159891.31;;;28.23;44.22
5350;BME280;2697;42.144;24.794;2022-09-09T05:46:11;159771.34;;;27.77;44.12
5350;BME280;2697;42.144;24.794;2022-09-09T05:48:42;159352.84;;;26.17;48.76
5350;BME280;2697;42.144;24.794;2022-09-09T05:51:12;159942.03;;;28.42;43.45
5350;BME280;2697;42.144;24.794;2022-09-09T05:53:41;159825.97;;;27.98;44.15
5350;BME280;2697;42.144;24.794;2022-09-09T05:56:12;159714.00;;;27.55;45.49
5350;BME280;2697;42.144;24.794;2022-09-09T05:58:39;159685.97;;;27.44;45.57
5350;BME280;2697;42.144;24.794;2022-09-09T06:01:08;159652.66;;;27.32;46.71
5350;BME280;2697;42.144;24.794;2022-09-09T06:03:36;159980.69;;;28.57;43.70
5350;BME280;2697;42.144;24.794;2022-09-09T06:06:04;159703.31;;;27.51;44.18
5350;BME280;2697;42.144;24.794;2022-09-09T06:08:31;159756.66;;;27.71;43.92
5350;BME280;2697;42.144;24.794;2022-09-09T06:11:08;159888.66;;;28.22;43.26
5350;BME280;2697;42.144;24.794;2022-09-09T06:13:34;159998.03;;;28.63;41.91
5350;BME280;2697;42.144;24.794;2022-09-09T06:16:02;159499.41;;;26.73;45.88
5350;BME280;2697;42.144;24.794;2022-09-09T06:18:28;159415.47;;;26.41;46.85
5350;BME280;2697;42.144;24.794;2022-09-09T06:23:19;159918.03;;;28.33;41.63
5350;BME280;2697;42.144;24.794;2022-09-09T06:25:45;159881.97;;;28.19;41.78
5350;BME280;2697;42.144;24.794;2022-09-09T06:28:11;159558.00;;;26.95;44.33
5350;BME280;2697;42.144;24.794;2022-09-09T06:30:36;159675.31;;;27.40;43.91
5350;BME280;2697;42.144;24.794;2022-09-09T06:33:02;159582.03;;;27.05;45.06
5350;BME280;2697;42.144;24.794;2022-09-09T06:35:27;159324.91;;;26.06;46.90
5350;BME280;2697;42.144;24.794;2022-09-09T06:37:53;158944.16;;;24.61;49.62
5350;BME280;2697;42.144;24.794;2022-09-09T06:40:19;158824.38;;;24.15;51.05
5350;BME280;2697;42.144;24.794;2022-09-09T06:42:44;158663.44;;;23.53;53.39
5350;BME280;2697;42.144;24.794;2022-09-09T06:45:10;158438.81;;;22.67;58.21
5350;BME280;2697;42.144;24.794;2022-09-09T06:47:36;158306.00;;;22.16;61.04
5350;BME280;2697;42.144;24.794;2022-09-09T06:50:01;158267.41;;;22.02;62.96
5350;BME280;2697;42.144;24.794;2022-09-09T06:52:26;158295.34;;;22.12;63.84
5350;BME280;2697;42.144;24.794;2022-09-09T06:54:52;158324.56;;;22.24;63.35
5350;BME280;2697;42.144;24.794;2022-09-09T06:57:18;158171.81;;;21.65;65.95
5350;BME280;2697;42.144;24.794;2022-09-09T06:59:44;158248.81;;;21.95;65.53
5350;BME280;2697;42.144;24.794;2022-09-09T07:02:09;158313.94;;;22.19;63.88
5350;BME280;2697;42.144;24.794;2022-09-09T07:04:35;158263.44;;;22.00;65.31
5350;BME280;2697;42.144;24.794;2022-09-09T07:07:02;158288.72;;;22.10;64.58
5350;BME280;2697;42.144;24.794;2022-09-09T07:09:27;158303.34;;;22.15;64.30
5350;BME280;2697;42.144;24.794;2022-09-09T07:11:54;158291.38;;;22.11;65.37
5350;BME280;2697;42.144;24.794;2022-09-09T07:14:20;158238.22;;;21.90;65.59
5350;BME280;2697;42.144;24.794;2022-09-09T07:16:46;158331.22;;;22.26;64.88
5350;BME280;2697;42.144;24.794;2022-09-09T07:19:12;158388.31;;;22.48;64.94
5350;BME280;2697;42.144;24.794;2022-09-09T07:21:38;158375.06;;;22.43;64.55
5350;BME280;2697;42.144;24.794;2022-09-09T07:24:05;158472.06;;;22.80;63.19
5350;BME280;2697;42.144;24.794;2022-09-09T07:26:33;158453.44;;;22.73;64.11
5350;BME280;2697;42.144;24.794;2022-09-09T07:28:58;158458.75;;;22.75;63.67
5350;BME280;2697;42.144;24.794;2022-09-09T07:31:28;158497.34;;;22.90;62.75
5350;BME280;2697;42.144;24.794;2022-09-09T07:33:55;158501.31;;;22.91;62.59
5350;BME280;2697;42.144;24.794;2022-09-09T07:36:23;158497.34;;;22.90;61.84
5350;BME280;2697;42.144;24.794;2022-09-09T07:38:51;158513.25;;;22.96;62.29
5350;BME280;2697;42.144;24.794;2022-09-09T07:41:27;158566.41;;;23.16;61.50
5350;BME280;2697;42.144;24.794;2022-09-09T07:43:53;158639.50;;;23.44;60.73
5350;BME280;2697;42.144;24.794;2022-09-09T07:46:20;158610.28;;;23.33;59.91
5350;BME280;2697;42.144;24.794;2022-09-09T07:48:50;158628.88;;;23.40;60.49
5350;BME280;2697;42.144;24.794;2022-09-09T07:51:19;158592.97;;;23.26;61.72
5350;BME280;2697;42.144;24.794;2022-09-09T07:53:46;158642.22;;;23.45;60.39
5350;BME280;2697;42.144;24.794;2022-09-09T07:56:15;158628.88;;;23.40;60.31
5350;BME280;2697;42.144;24.794;2022-09-09T07:58:44;158469.34;;;22.79;62.72
5350;BME280;2697;42.144;24.794;2022-09-09T08:01:15;158505.31;;;22.93;62.08
5350;BME280;2697;42.144;24.794;2022-09-09T08:03:42;158622.25;;;23.38;60.18
5350;BME280;2697;42.144;24.794;2022-09-09T08:06:08;158651.50;;;23.49;59.20
5350;BME280;2697;42.144;24.794;2022-09-09T08:08:35;158706.03;;;23.70;58.42
5350;BME280;2697;42.144;24.794;2022-09-09T08:13:30;158747.28;;;23.85;57.79
5350;BME280;2697;42.144;24.794;2022-09-09T08:16:04;158753.91;;;23.88;57.59
5350;BME280;2697;42.144;24.794;2022-09-09T08:18:29;158761.88;;;23.91;57.49
5350;BME280;2697;42.144;24.794;2022-09-09T08:20:55;158812.44;;;24.10;56.12
5350;BME280;2697;42.144;24.794;2022-09-09T08:23:20;158878.94;;;24.36;55.17
5350;BME280;2697;42.144;24.794;2022-09-09T08:25:46;158914.91;;;24.50;54.69
5350;BME280;2697;42.144;24.794;2022-09-09T08:28:14;158922.84;;;24.53;55.18
5350;BME280;2697;42.144;24.794;2022-09-09T08:30:39;158865.63;;;24.31;55.40
5350;BME280;2697;42.144;24.794;2022-09-09T08:33:04;158938.84;;;24.59;54.22
5350;BME280;2697;42.144;24.794;2022-09-09T08:35:30;158910.91;;;24.48;53.96
5350;BME280;2697;42.144;24.794;2022-09-09T08:37:57;158941.50;;;24.60;54.81
5350;BME280;2697;42.144;24.794;2022-09-09T08:40:29;159009.34;;;24.86;53.61
5350;BME280;2697;42.144;24.794;2022-09-09T08:43:00;159054.59;;;25.03;52.81
5350;BME280;2697;42.144;24.794;2022-09-09T08:46:04;159070.59;;;25.09;52.52
5350;BME280;2697;42.144;24.794;2022-09-09T08:50:50;159029.25;;;24.93;52.57
5350;BME280;2697;42.144;24.794;2022-09-09T08:53:27;159123.81;;;25.29;51.95
5350;BME280;2697;42.144;24.794;2022-09-09T08:55:58;159177.03;;;25.50;51.16
5350;BME280;2697;42.144;24.794;2022-09-09T08:58:27;159155.78;;;25.42;52.17
5350;BME280;2697;42.144;24.794;2022-09-09T09:01:21;159115.84;;;25.26;52.42
5350;BME280;2697;42.144;24.794;2022-09-09T09:04:12;159165.06;;;25.45;52.41
5350;BME280;2697;42.144;24.794;2022-09-09T09:11:53;159205.03;;;25.61;51.64
5350;BME280;2697;42.144;24.794;2022-09-09T09:14:24;159210.34;;;25.63;51.46
5350;BME280;2697;42.144;24.794;2022-09-09T09:19:26;159390.13;;;26.31;50.38
5350;BME280;2697;42.144;24.794;2022-09-09T09:21:59;159395.44;;;26.33;50.51
5350;BME280;2697;42.144;24.794;2022-09-09T09:24:56;159395.44;;;26.33;49.20
5350;BME280;2697;42.144;24.794;2022-09-09T09:29:55;159391.44;;;26.32;48.92
5350;BME280;2697;42.144;24.794;2022-09-09T09:32:24;159404.78;;;26.37;49.10
5350;BME280;2697;42.144;24.794;2022-09-09T09:34:54;159312.88;;;26.02;49.98
5350;BME280;2697;42.144;24.794;2022-09-09T09:37:30;159328.88;;;26.08;50.79
5350;BME280;2697;42.144;24.794;2022-09-09T09:40:08;159315.56;;;26.03;50.07
5350;BME280;2697;42.144;24.794;2022-09-09T09:42:34;159302.25;;;25.98;50.18
5350;BME280;2697;42.144;24.794;2022-09-09T09:45:32;159404.78;;;26.37;50.36
5350;BME280;2697;42.144;24.794;2022-09-09T09:48:05;159454.13;;;26.56;49.90
5350;BME280;2697;42.144;24.794;2022-09-09T09:50:32;159350.19;;;26.16;50.41
5350;BME280;2697;42.144;24.794;2022-09-09T09:53:03;159422.16;;;26.44;50.64
5350;BME280;2697;42.144;24.794;2022-09-09T09:55:31;159480.75;;;26.66;49.85
5350;BME280;2697;42.144;24.794;2022-09-09T09:58:06;159516.69;;;26.80;50.27
5350;BME280;2697;42.144;24.794;2022-09-09T10:00:32;159532.69;;;26.86;49.35
5350;BME280;2697;42.144;24.794;2022-09-09T10:03:00;159602.03;;;27.12;49.20
5350;BME280;2697;42.144;24.794;2022-09-09T10:05:30;159627.34;;;27.22;49.03
5350;BME280;2697;42.144;24.794;2022-09-09T10:08:14;159640.69;;;27.27;48.75
5350;BME280;2697;42.144;24.794;2022-09-09T10:11:07;159694.00;;;27.47;48.17
5350;BME280;2697;42.144;24.794;2022-09-09T10:19:35;159603.38;;;27.13;48.91
5350;BME280;2697;42.144;24.794;2022-09-09T10:22:28;159562.00;;;26.97;48.97
5350;BME280;2697;42.144;24.794;2022-09-09T10:30:38;159661.97;;;27.35;49.69
5350;BME280;2697;42.144;24.794;2022-09-09T10:33:10;159592.72;;;27.09;49.35
5350;BME280;2697;42.144;24.794;2022-09-09T10:36:12;159530.03;;;26.85;50.90
5350;BME280;2697;42.144;24.794;2022-09-09T10:38:46;159544.72;;;26.90;50.24
5350;BME280;2697;42.144;24.794;2022-09-09T10:52:57;159752.66;;;27.70;48.67
5350;BME280;2697;42.144;24.794;2022-09-09T10:55:37;159723.31;;;27.59;48.77
5350;BME280;2697;42.144;24.794;2022-09-09T10:58:04;159724.63;;;27.59;48.76
5350;BME280;2697;42.144;24.794;2022-09-09T11:00:42;159747.34;;;27.68;48.46
5350;BME280;2697;42.144;24.794;2022-09-09T11:03:22;159814.00;;;27.93;48.10
5350;BME280;2697;42.144;24.794;2022-09-09T11:05:54;159918.03;;;28.33;46.88
5350;BME280;2697;42.144;24.794;2022-09-09T11:08:25;159884.66;;;28.20;46.86
5350;BME280;2697;42.144;24.794;2022-09-09T11:11:32;159828.63;;;27.99;46.46
5350;BME280;2697;42.144;24.794;2022-09-09T11:14:15;159819.31;;;27.95;47.49
5350;BME280;2697;42.144;24.794;2022-09-09T11:16:46;159859.28;;;28.10;46.93
5350;BME280;2697;42.144;24.794;2022-09-09T11:21:52;160022.03;;;28.73;45.53
5350;BME280;2697;42.144;24.794;2022-09-09T11:24:26;160078.09;;;28.94;44.99
5350;BME280;2697;42.144;24.794;2022-09-09T11:27:01;159966.03;;;28.51;45.61
5350;BME280;2697;42.144;24.794;2022-09-09T11:29:52;159971.38;;;28.53;45.21
5350;BME280;2697;42.144;24.794;2022-09-09T11:40:33;160038.06;;;28.79;45.43
5350;BME280;2697;42.144;24.794;2022-09-09T11:45:29;160146.13;;;29.20;44.22
5350;BME280;2697;42.144;24.794;2022-09-09T11:47:58;160107.47;;;29.05;44.92
5350;BME280;2697;42.144;24.794;2022-09-09T11:50:27;160186.19;;;29.35;44.38
5350;BME280;2697;42.144;24.794;2022-09-09T11:53:24;160176.88;;;29.32;44.16
5350;BME280;2697;42.144;24.794;2022-09-09T11:56:12;160127.44;;;29.13;44.48
5350;BME280;2697;42.144;24.794;2022-09-09T11:58:43;160184.84;;;29.35;44.86
5350;BME280;2697;42.144;24.794;2022-09-09T12:01:37;160319.66;;;29.86;43.80
5350;BME280;2697;42.144;24.794;2022-09-09T12:06:45;160345.00;;;29.96;43.34
5350;BME280;2697;42.144;24.794;2022-09-09T12:12:24;160361.03;;;30.02;43.18
5350;BME280;2697;42.144;24.794;2022-09-09T12:17:49;160358.38;;;30.01;42.52
5350;BME280;2697;42.144;24.794;2022-09-09T12:20:37;160427.84;;;30.27;42.03
5350;BME280;2697;42.144;24.794;2022-09-09T12:28:33;160387.78;;;30.12;43.34
5350;BME280;2697;42.144;24.794;2022-09-09T12:31:10;160349.06;;;29.97;43.17
5350;BME280;2697;42.144;24.794;2022-09-09T12:33:43;160357.06;;;30.00;42.61
5350;BME280;2697;42.144;24.794;2022-09-09T12:36:29;160426.53;;;30.27;43.31
5350;BME280;2697;42.144;24.794;2022-09-09T12:38:57;160493.25;;;30.52;42.43
5350;BME280;2697;42.144;24.794;2022-09-09T12:41:26;160495.97;;;30.53;42.33
5350;BME280;2697;42.144;24.794;2022-09-09T12:44:08;160522.66;;;30.63;42.00
5350;BME280;2697;42.144;24.794;2022-09-09T12:46:38;160454.56;;;30.38;43.04
5350;BME280;2697;42.144;24.794;2022-09-09T12:49:04;160489.25;;;30.51;42.43
5350;BME280;2697;42.144;24.794;2022-09-09T12:51:32;160454.56;;;30.38;42.76
5350;BME280;2697;42.144;24.794;2022-09-09T12:53:59;160409.16;;;30.20;43.01
5350;BME280;2697;42.144;24.794;2022-09-09T12:56:28;160483.91;;;30.49;42.82
5350;BME280;2697;42.144;24.794;2022-09-09T12:58:56;160502.63;;;30.56;41.67
5350;BME280;2697;42.144;24.794;2022-09-09T13:01:31;160499.97;;;30.55;41.75
5350;BME280;2697;42.144;24.794;2022-09-09T13:03:58;160558.72;;;30.77;41.87
5350;BME280;2697;42.144;24.794;2022-09-09T13:06:28;160609.47;;;30.97;41.41
5350;BME280;2697;42.144;24.794;2022-09-09T13:08:56;160649.56;;;31.12;41.30
5350;BME280;2697;42.144;24.794;2022-09-09T13:11:27;160660.22;;;31.16;40.94
5350;BME280;2697;42.144;24.794;2022-09-09T13:13:55;160679.00;;;31.23;40.20
5350;BME280;2697;42.144;24.794;2022-09-09T13:18:46;160507.94;;;30.58;42.21
5350;BME280;2697;42.144;24.794;2022-09-09T13:21:12;160545.41;;;30.72;41.54
5350;BME280;2697;42.144;24.794;2022-09-09T13:23:38;160569.44;;;30.81;41.91
5350;BME280;2697;42.144;24.794;2022-09-09T13:26:06;160548.06;;;30.73;40.66
5350;BME280;2697;42.144;24.794;2022-09-09T13:28:44;160494.63;;;30.53;41.29
5350;BME280;2697;42.144;24.794;2022-09-09T13:31:28;160495.97;;;30.53;41.85
5350;BME280;2697;42.144;24.794;2022-09-09T13:33:54;160489.25;;;30.51;42.36
5350;BME280;2697;42.144;24.794;2022-09-09T13:36:34;160541.38;;;30.71;41.41
5350;BME280;2697;42.144;24.794;2022-09-09T13:39:01;160487.91;;;30.50;41.51
5350;BME280;2697;42.144;24.794;2022-09-09T13:41:44;160481.25;;;30.48;42.15
5350;BME280;2697;42.144;24.794;2022-09-09T13:44:25;160319.66;;;29.86;42.77
5350;BME280;2697;42.144;24.794;2022-09-09T13:47:06;160397.16;;;30.16;41.95
5350;BME280;2697;42.144;24.794;2022-09-09T13:49:42;160387.78;;;30.12;42.15
5350;BME280;2697;42.144;24.794;2022-09-09T13:52:15;160335.69;;;29.92;43.71
5350;BME280;2697;42.144;24.794;2022-09-09T13:54:42;160281.00;;;29.71;43.09
5350;BME280;2697;42.144;24.794;2022-09-09T13:57:22;160236.94;;;29.55;43.32
5350;BME280;2697;42.144;24.794;2022-09-09T13:59:48;160323.72;;;29.88;42.85
5350;BME280;2697;42.144;24.794;2022-09-09T14:02:15;160406.50;;;30.19;42.31
5350;BME280;2697;42.144;24.794;2022-09-09T14:04:42;160481.25;;;30.48;41.92
5350;BME280;2697;42.144;24.794;2022-09-09T14:07:15;160429.19;;;30.28;42.52
5350;BME280;2697;42.144;24.794;2022-09-09T14:09:41;160438.50;;;30.31;42.11
5350;BME280;2697;42.144;24.794;2022-09-09T14:12:14;160426.53;;;30.27;42.41
5350;BME280;2697;42.144;24.794;2022-09-09T14:14:40;160467.88;;;30.43;42.15
5350;BME280;2697;42.144;24.794;2022-09-09T14:17:07;160471.94;;;30.44;42.09
5350;BME280;2697;42.144;24.794;2022-09-09T14:19:33;160443.84;;;30.33;42.27
5350;BME280;2697;42.144;24.794;2022-09-09T14:21:59;160346.34;;;29.96;42.76
5350;BME280;2697;42.144;24.794;2022-09-09T14:24:24;160327.69;;;29.89;43.53
5350;BME280;2697;42.144;24.794;2022-09-09T14:26:50;160271.59;;;29.68;43.67
5350;BME280;2697;42.144;24.794;2022-09-09T14:29:16;160248.91;;;29.59;43.87
5350;BME280;2697;42.144;24.794;2022-09-09T14:31:41;160250.31;;;29.60;44.27
5350;BME280;2697;42.144;24.794;2022-09-09T14:34:06;160227.63;;;29.51;44.24
5350;BME280;2697;42.144;24.794;2022-09-09T14:36:32;160246.25;;;29.58;43.90
5350;BME280;2697;42.144;24.794;2022-09-09T14:38:58;160218.19;;;29.47;44.44
5350;BME280;2697;42.144;24.794;2022-09-09T14:41:24;160250.31;;;29.60;44.03
5350;BME280;2697;42.144;24.794;2022-09-09T14:43:50;160264.94;;;29.65;43.94
5350;BME280;2697;42.144;24.794;2022-09-09T14:46:18;160208.88;;;29.44;44.76
5350;BME280;2697;42.144;24.794;2022-09-09T14:48:44;160206.22;;;29.43;45.13
5350;BME280;2697;42.144;24.794;2022-09-09T14:51:17;160223.56;;;29.49;44.55
5350;BME280;2697;42.144;24.794;2022-09-09T14:53:44;160240.94;;;29.56;44.60
5350;BME280;2697;42.144;24.794;2022-09-09T14:56:14;160191.50;;;29.37;45.07
5350;BME280;2697;42.144;24.794;2022-09-09T14:58:40;160164.84;;;29.27;45.09
5350;BME280;2697;42.144;24.794;2022-09-09T15:01:09;160152.84;;;29.22;44.91
5350;BME280;2697;42.144;24.794;2022-09-09T15:03:36;160144.81;;;29.19;45.44
5350;BME280;2697;42.144;24.794;2022-09-09T15:06:07;160132.81;;;29.15;45.42
5350;BME280;2697;42.144;24.794;2022-09-09T15:08:34;160176.88;;;29.32;44.79
5350;BME280;2697;42.144;24.794;2022-09-09T15:11:01;160131.50;;;29.14;45.45